TimeEDT,TemperatureF,Dew PointF,Humidity,Sea Level PressureIn,VisibilityMPH,Wind Direction,Wind SpeedMPH,Gust SpeedMPH,PrecipitationIn,Events,Conditions,WindDirDegrees,DateUTC
12:15 AM,65.3,59.2,81,29.77,10.0,North,4.6,-,N/A,,Overcast,10,2013-06-30 04:15:00
12:35 AM,64.6,59.4,83,29.77,10.0,North,3.5,-,N/A,,Overcast,10,2013-06-30 04:35:00
12:55 AM,64.4,59.4,84,29.77,10.0,Calm,Calm,-,N/A,Rain,Light Rain,0,2013-06-30 04:55:00
1:15 AM,64.0,59.5,85,29.78,10.0,Calm,Calm,-,N/A,,Overcast,0,2013-06-30 05:15:00
1:35 AM,63.7,59.5,86,29.79,10.0,Calm,Calm,-,N/A,,Overcast,0,2013-06-30 05:35:00
1:54 AM,63.5,59.0,85,29.79,10.0,Calm,Calm,-,N/A,,Overcast,0,2013-06-30 05:54:00
2:15 AM,63.5,59.4,86,29.79,10.0,Calm,Calm,-,N/A,,Overcast,0,2013-06-30 06:15:00
2:35 AM,63.5,59.2,86,29.79,10.0,Calm,Calm,-,N/A,,Overcast,0,2013-06-30 06:35:00
2:54 AM,62.8,59.0,87,29.79,10.0,Calm,Calm,-,N/A,,Mostly Cloudy,0,2013-06-30 06:54:00
3:15 AM,62.6,59.0,88,29.79,10.0,Calm,Calm,-,N/A,,Mostly Cloudy,0,2013-06-30 07:15:00
3:35 AM,63.1,59.0,86,29.79,10.0,Calm,Calm,-,N/A,,Overcast,0,2013-06-30 07:35:00
3:54 AM,63.1,59.9,89,29.79,10.0,Calm,Calm,-,N/A,,Overcast,0,2013-06-30 07:54:00
4:15 AM,62.6,59.2,89,29.79,10.0,Calm,Calm,-,N/A,,Overcast,0,2013-06-30 08:15:00
4:34 AM,62.1,59.4,91,29.79,10.0,Calm,Calm,-,N/A,,Overcast,0,2013-06-30 08:34:00
4:55 AM,62.1,60.6,95,29.80,10.0,Calm,Calm,-,N/A,,Mostly Cloudy,0,2013-06-30 08:55:00
5:14 AM,61.5,60.6,97,29.80,10.0,Calm,Calm,-,N/A,,Mostly Cloudy,0,2013-06-30 09:14:00
5:35 AM,61.3,60.1,96,29.81,10.0,Calm,Calm,-,N/A,,Scattered Clouds,0,2013-06-30 09:35:00
5:55 AM,61.0,59.9,96,29.81,10.0,Calm,Calm,-,N/A,,Clear,0,2013-06-30 09:55:00
6:14 AM,61.0,59.5,95,29.81,10.0,Calm,Calm,-,N/A,,Clear,0,2013-06-30 10:14:00
6:35 AM,60.3,59.5,97,29.82,10.0,Calm,Calm,-,N/A,,Scattered Clouds,0,2013-06-30 10:35:00
6:55 AM,62.4,61.2,96,29.82,10.0,NNW,3.5,-,N/A,,Scattered Clouds,340,2013-06-30 10:55:00
7:15 AM,63.0,61.2,94,29.83,10.0,NNW,3.5,-,N/A,,Clear,340,2013-06-30 11:15:00
7:35 AM,64.6,61.9,91,29.83,10.0,Calm,Calm,-,N/A,,Clear,0,2013-06-30 11:35:00
7:55 AM,65.7,62.2,89,29.84,10.0,North,3.5,-,N/A,,Clear,10,2013-06-30 11:55:00
8:15 AM,66.6,62.8,88,29.84,10.0,NNE,3.5,-,N/A,,Clear,20,2013-06-30 12:15:00
8:35 AM,68.0,63.5,85,29.84,10.0,NNE,5.8,-,N/A,,Clear,20,2013-06-30 12:35:00
8:55 AM,67.8,63.9,87,29.85,10.0,North,4.6,-,N/A,,Clear,10,2013-06-30 12:55:00
9:15 AM,69.4,63.7,82,29.85,10.0,NNE,5.8,-,N/A,,Clear,20,2013-06-30 13:15:00
9:35 AM,70.7,63.9,79,29.86,10.0,NNE,4.6,-,N/A,,Clear,20,2013-06-30 13:35:00
9:54 AM,71.6,63.7,76,29.86,10.0,North,4.6,-,N/A,,Clear,10,2013-06-30 13:54:00
10:15 AM,72.9,63.1,71,29.87,10.0,NE,5.8,-,N/A,,Clear,40,2013-06-30 14:15:00
10:35 AM,74.3,63.0,68,29.87,10.0,NE,6.9,-,N/A,,Clear,50,2013-06-30 14:35:00
10:54 AM,74.1,60.8,63,29.87,10.0,NE,4.6,-,N/A,,Clear,40,2013-06-30 14:54:00
11:15 AM,76.1,59.9,57,29.87,10.0,ENE,8.1,-,N/A,,Clear,60,2013-06-30 15:15:00
11:34 AM,75.9,60.6,59,29.87,10.0,East,6.9,-,N/A,,Scattered Clouds,80,2013-06-30 15:34:00
11:55 AM,75.4,61.9,63,29.88,10.0,NE,6.9,-,N/A,,Mostly Cloudy,50,2013-06-30 15:55:00
12:15 PM,76.5,60.8,58,29.88,10.0,ENE,6.9,-,N/A,,Mostly Cloudy,70,2013-06-30 16:15:00
12:34 PM,77.5,61.0,57,29.89,10.0,NE,8.1,17.3,N/A,,Scattered Clouds,40,2013-06-30 16:34:00
12:55 PM,77.5,60.6,56,29.89,10.0,ENE,5.8,-,N/A,,Scattered Clouds,70,2013-06-30 16:55:00
1:15 PM,76.5,61.3,59,29.89,10.0,North,9.2,-,N/A,,Scattered Clouds,10,2013-06-30 17:15:00
1:35 PM,74.7,64.8,71,29.89,10.0,NNW,4.6,-,N/A,,Mostly Cloudy,340,2013-06-30 17:35:00
1:55 PM,75.4,62.4,64,29.89,10.0,NE,6.9,-,N/A,,Overcast,40,2013-06-30 17:55:00
2:14 PM,76.5,61.7,60,29.89,10.0,North,9.2,-,N/A,,Mostly Cloudy,360,2013-06-30 18:14:00
2:35 PM,75.2,65.1,71,29.89,10.0,North,8.1,-,N/A,,Overcast,360,2013-06-30 18:35:00
2:55 PM,74.5,65.3,73,29.89,10.0,North,9.2,-,N/A,,Overcast,360,2013-06-30 18:55:00
3:15 PM,75.4,64.2,68,29.89,10.0,NE,8.1,-,N/A,,Overcast,40,2013-06-30 19:15:00
3:35 PM,68.5,61.3,78,29.91,2.0,East,12.7,25.3,N/A,Rain,Heavy Rain,90,2013-06-30 19:35:00
3:54 PM,67.6,62.8,84,29.91,7.0,ENE,10.4,-,N/A,Rain,Light Rain,70,2013-06-30 19:54:00
4:15 PM,67.3,61.9,83,29.91,10.0,East,8.1,-,N/A,Rain,Light Rain,90,2013-06-30 20:15:00
4:35 PM,68.7,62.4,80,29.91,10.0,East,4.6,-,N/A,,Overcast,80,2013-06-30 20:35:00
4:54 PM,70.3,64.2,81,29.91,10.0,Calm,Calm,-,N/A,,Overcast,0,2013-06-30 20:54:00
5:15 PM,71.8,65.7,81,29.91,10.0,Calm,Calm,-,N/A,,Overcast,0,2013-06-30 21:15:00
5:35 PM,74.5,61.5,64,29.91,10.0,NNE,11.5,18.4,N/A,,Mostly Cloudy,30,2013-06-30 21:35:00
5:54 PM,75.9,58.8,55,29.91,10.0,NNE,12.7,18.4,N/A,,Scattered Clouds,20,2013-06-30 21:54:00
6:15 PM,75.2,57.7,54,29.92,10.0,NNE,9.2,-,N/A,,Clear,30,2013-06-30 22:15:00
6:35 PM,74.7,56.8,54,29.92,10.0,North,10.4,17.3,N/A,,Clear,10,2013-06-30 22:35:00
6:55 PM,74.5,55.0,51,29.93,10.0,North,11.5,17.3,N/A,,Clear,10,2013-06-30 22:55:00
7:15 PM,74.1,54.3,50,29.93,10.0,North,13.8,-,N/A,,Clear,10,2013-06-30 23:15:00
7:35 PM,72.9,55.0,53,29.94,10.0,North,9.2,-,N/A,,Clear,10,2013-06-30 23:35:00
7:55 PM,71.6,49.8,46,29.94,10.0,NNE,10.4,16.1,N/A,,Clear,20,2013-06-30 23:55:00
8:15 PM,70.0,49.3,48,29.96,10.0,North,8.1,-,N/A,,Clear,10,2013-07-01 00:15:00
8:34 PM,68.7,47.3,46,29.96,10.0,North,6.9,-,N/A,,Clear,10,2013-07-01 00:34:00
8:55 PM,66.7,47.1,49,29.96,10.0,NNE,6.9,-,N/A,,Clear,20,2013-07-01 00:55:00
9:15 PM,65.7,45.7,48,29.97,10.0,NNE,3.5,-,N/A,,Clear,20,2013-07-01 01:15:00
9:34 PM,64.2,45.9,51,29.97,10.0,North,3.5,-,N/A,,Clear,10,2013-07-01 01:34:00
9:55 PM,63.3,43.7,49,29.98,10.0,Calm,Calm,-,N/A,,Clear,0,2013-07-01 01:55:00
10:15 PM,62.1,43.9,51,29.99,10.0,North,3.5,-,N/A,,Clear,360,2013-07-01 02:15:00
10:34 PM,61.2,44.8,55,29.99,10.0,North,3.5,-,N/A,,Clear,10,2013-07-01 02:34:00
10:55 PM,60.4,45.0,57,29.99,10.0,North,4.6,-,N/A,,Clear,10,2013-07-01 02:55:00
11:15 PM,60.1,45.1,58,29.99,10.0,North,3.5,-,N/A,,Clear,360,2013-07-01 03:15:00
11:35 PM,59.5,45.5,60,29.99,10.0,North,3.5,-,N/A,,Clear,10,2013-07-01 03:35:00
11:55 PM,59.9,46.0,60,29.99,10.0,Calm,Calm,-,N/A,,Clear,0,2013-07-01 03:55:00